createdAt,value
2023-01-13T00:00:12.965Z,10.80
2023-01-13T00:02:40.057Z,10.80
2023-01-13T00:05:07.399Z,10.80
2023-01-13T00:07:34.366Z,10.70
2023-01-13T00:10:01.281Z,10.70
2023-01-13T00:12:31.003Z,10.80
2023-01-13T00:14:57.908Z,10.80
2023-01-13T00:17:24.810Z,10.70
2023-01-13T00:19:51.698Z,10.70
2023-01-13T00:22:18.590Z,10.30
2023-01-13T00:24:45.610Z,10.00
2023-01-13T00:27:12.510Z,9.90
2023-01-13T00:29:39.415Z,9.90
2023-01-13T00:32:06.403Z,9.70
2023-01-13T00:34:33.482Z,9.60
2023-01-13T00:37:00.340Z,9.60
2023-01-13T00:39:27.292Z,9.60
2023-01-13T00:42:12.745Z,9.50
2023-01-13T00:44:39.655Z,9.50
2023-01-13T00:47:06.542Z,9.30
2023-01-13T00:49:33.603Z,9.30
2023-01-13T00:52:00.616Z,9.20
2023-01-13T00:54:27.549Z,9.10
2023-01-13T00:56:54.414Z,9.00
2023-01-13T00:59:21.306Z,9.00
2023-01-13T01:01:48.291Z,8.90
2023-01-13T01:04:15.308Z,9.10
2023-01-13T01:06:42.156Z,8.80
2023-01-13T01:09:15.888Z,8.90
2023-01-13T01:11:43.517Z,8.80
2023-01-13T01:14:12.562Z,8.80
2023-01-13T01:16:41.514Z,8.80
2023-01-13T01:19:09.767Z,8.90
2023-01-13T01:21:36.699Z,8.90
2023-01-13T01:24:04.891Z,8.90
2023-01-13T01:26:32.701Z,8.90
2023-01-13T01:29:02.099Z,8.90
2023-01-13T01:31:31.817Z,8.90
2023-01-13T01:33:59.773Z,8.90
2023-01-13T01:36:30.776Z,8.90
2023-01-13T01:38:59.675Z,8.90
2023-01-13T01:41:30.114Z,8.80
2023-01-13T01:44:28.913Z,8.70
2023-01-13T01:46:56.902Z,8.70
2023-01-13T01:49:32.878Z,8.70
2023-01-13T01:52:12.894Z,8.60
2023-01-13T01:55:12.905Z,8.70
2023-01-13T01:57:51.849Z,8.60
2023-01-13T02:00:19.131Z,8.50
2023-01-13T02:02:48.305Z,8.60
2023-01-13T02:05:15.681Z,8.70
2023-01-13T02:07:44.686Z,8.50
2023-01-13T02:10:14.592Z,8.50
2023-01-13T02:12:44.530Z,8.40
2023-01-13T02:15:16.487Z,8.40
2023-01-13T02:18:05.423Z,8.30
2023-01-13T02:20:51.157Z,8.30
2023-01-13T02:24:24.090Z,8.30
2023-01-13T02:27:03.007Z,8.10
2023-01-13T02:29:54.243Z,8.10
2023-01-13T02:32:34.383Z,8.20
2023-01-13T02:35:29.098Z,8.10
2023-01-13T02:37:58.698Z,8.10
2023-01-13T02:40:33.296Z,8.10
2023-01-13T02:43:23.164Z,8.10
2023-01-13T02:45:55.949Z,8.00
2023-01-13T02:48:24.795Z,8.10
2023-01-13T02:51:01.391Z,7.80
2023-01-13T02:53:37.137Z,7.70
2023-01-13T02:56:06.647Z,7.70
2023-01-13T02:58:36.879Z,7.50
2023-01-13T03:01:04.167Z,7.70
2023-01-13T03:03:31.063Z,7.60
2023-01-13T03:06:26.012Z,7.60
2023-01-13T03:08:57.026Z,7.60
2023-01-13T03:11:28.659Z,7.60
2023-01-13T03:13:55.577Z,7.60
2023-01-13T03:16:53.275Z,7.60
2023-01-13T03:19:35.282Z,7.50
2023-01-13T03:22:17.177Z,7.50
2023-01-13T03:25:15.975Z,7.60
2023-01-13T03:27:50.265Z,7.50
2023-01-13T03:30:41.100Z,7.40
2023-01-13T03:33:17.779Z,7.40
2023-01-13T03:35:48.334Z,7.40
2023-01-13T03:38:24.009Z,7.40
2023-01-13T03:41:17.899Z,7.40
2023-01-13T03:44:23.891Z,7.40
2023-01-13T03:47:14.849Z,7.40
2023-01-13T03:50:00.669Z,7.40
2023-01-13T03:52:38.840Z,7.50
2023-01-13T03:55:13.421Z,7.50
2023-01-13T03:57:48.950Z,7.40
2023-01-13T04:00:17.831Z,7.50
2023-01-13T04:02:57.196Z,7.40
2023-01-13T04:05:28.800Z,7.40
2023-01-13T04:08:05.073Z,7.50
2023-01-13T04:10:40.152Z,7.50
2023-01-13T04:13:10.853Z,7.50
2023-01-13T04:15:44.068Z,7.60
2023-01-13T04:18:30.514Z,7.60
2023-01-13T04:21:00.088Z,7.50
2023-01-13T04:23:28.185Z,7.50
2023-01-13T04:25:55.718Z,7.40
2023-01-13T04:28:23.138Z,7.50
2023-01-13T04:30:50.239Z,7.60
2023-01-13T04:33:19.360Z,7.50
2023-01-13T04:35:47.267Z,7.50
2023-01-13T04:38:19.791Z,7.50
2023-01-13T04:40:47.349Z,7.50
2023-01-13T04:43:15.816Z,7.50
2023-01-13T04:45:43.545Z,7.50
2023-01-13T04:48:10.585Z,7.40
2023-01-13T04:50:37.429Z,7.50
2023-01-13T04:53:04.353Z,7.50
2023-01-13T04:55:32.034Z,7.50
2023-01-13T04:58:07.201Z,7.50
2023-01-13T05:00:34.598Z,7.50
2023-01-13T05:03:01.876Z,7.60
2023-01-13T05:05:30.057Z,7.60
2023-01-13T05:07:57.902Z,7.60
2023-01-13T05:10:25.069Z,7.50
2023-01-13T05:13:10.332Z,7.70
2023-01-13T05:15:57.724Z,7.50
2023-01-13T05:18:25.014Z,7.50
2023-01-13T05:20:52.171Z,7.40
2023-01-13T05:23:37.542Z,7.40
2023-01-13T05:26:05.942Z,7.30
2023-01-13T05:28:34.149Z,7.40
2023-01-13T05:31:01.392Z,7.40
2023-01-13T05:33:28.499Z,7.40
2023-01-13T05:35:55.443Z,7.40
2023-01-13T05:38:22.354Z,7.40
2023-01-13T05:41:08.086Z,7.40
2023-01-13T05:43:35.099Z,7.40
2023-01-13T05:46:08.091Z,7.40
2023-01-13T05:48:37.749Z,7.40
2023-01-13T05:51:07.053Z,7.40
2023-01-13T05:53:34.858Z,7.40
2023-01-13T05:56:05.080Z,7.40
2023-01-13T05:58:31.992Z,7.40
2023-01-13T06:01:17.137Z,7.40
2023-01-13T06:03:44.057Z,7.40
2023-01-13T06:06:10.986Z,7.40
2023-01-13T06:08:39.692Z,7.30
2023-01-13T06:11:07.096Z,7.40
2023-01-13T06:13:33.999Z,7.30
2023-01-13T06:16:01.367Z,7.30
2023-01-13T06:18:28.648Z,7.30
2023-01-13T06:20:56.492Z,7.40
2023-01-13T06:23:23.783Z,7.40
2023-01-13T06:26:10.016Z,7.30
2023-01-13T06:28:37.160Z,7.30
2023-01-13T06:31:07.208Z,7.40
2023-01-13T06:33:37.647Z,7.30
2023-01-13T06:36:10.291Z,7.30
2023-01-13T06:38:41.510Z,7.30
2023-01-13T06:41:09.068Z,7.40
2023-01-13T06:43:36.207Z,7.40
2023-01-13T06:46:03.812Z,7.40
2023-01-13T06:48:35.922Z,7.50
2023-01-13T06:51:04.297Z,7.40
2023-01-13T06:53:31.809Z,7.40
2023-01-13T06:55:58.719Z,7.40
2023-01-13T06:58:25.624Z,7.40
2023-01-13T07:00:52.720Z,7.40
2023-01-13T07:03:20.153Z,7.30
2023-01-13T07:05:57.028Z,7.30
2023-01-13T07:08:27.408Z,7.40
2023-01-13T07:10:54.488Z,7.30
2023-01-13T07:13:40.469Z,7.30
2023-01-13T07:16:08.960Z,7.30
2023-01-13T07:18:39.155Z,7.30
2023-01-13T07:21:09.049Z,7.40
2023-01-13T07:23:39.855Z,7.40
2023-01-13T07:26:08.727Z,7.30
2023-01-13T07:28:36.095Z,7.30
2023-01-13T07:31:03.471Z,7.30
2023-01-13T07:33:33.398Z,7.30
2023-01-13T07:36:05.582Z,7.30
2023-01-13T07:38:34.106Z,7.40
2023-01-13T07:41:22.122Z,7.40
2023-01-13T07:43:49.292Z,7.40
2023-01-13T07:46:16.992Z,7.50
2023-01-13T07:48:44.319Z,7.60
2023-01-13T07:51:12.400Z,7.60
2023-01-13T07:53:39.556Z,7.60
2023-01-13T07:56:07.943Z,7.70
2023-01-13T07:58:36.064Z,7.70
2023-01-13T08:01:09.868Z,7.70
2023-01-13T08:03:40.463Z,7.80
2023-01-13T08:06:11.424Z,7.80
2023-01-13T08:08:39.099Z,7.80
2023-01-13T08:11:08.464Z,7.90
2023-01-13T08:13:35.746Z,7.90
2023-01-13T08:16:10.471Z,7.90
2023-01-13T08:18:41.564Z,7.90
2023-01-13T08:21:13.783Z,7.90
2023-01-13T08:23:42.655Z,7.90
2023-01-13T08:26:17.139Z,8.00
2023-01-13T08:28:47.750Z,8.00
2023-01-13T08:31:17.085Z,8.00
2023-01-13T08:33:44.305Z,8.00
2023-01-13T08:36:12.388Z,8.10
2023-01-13T08:38:46.539Z,8.20
2023-01-13T08:41:18.587Z,8.20
2023-01-13T08:43:51.997Z,8.10
2023-01-13T08:46:19.052Z,8.10
2023-01-13T08:48:49.132Z,8.20
2023-01-13T08:51:17.472Z,8.20
2023-01-13T08:53:45.677Z,8.20
2023-01-13T08:56:14.769Z,8.20
2023-01-13T08:58:41.780Z,8.20
2023-01-13T09:01:10.121Z,8.20
2023-01-13T09:03:39.148Z,8.20
2023-01-13T09:06:06.298Z,8.20
2023-01-13T09:08:33.421Z,8.30
2023-01-13T09:11:29.242Z,8.40
2023-01-13T09:13:56.177Z,8.30
2023-01-13T09:16:23.125Z,8.40
2023-01-13T09:18:50.073Z,8.40
2023-01-13T09:21:19.764Z,8.40
2023-01-13T09:23:46.912Z,8.40
2023-01-13T09:26:18.900Z,8.40
2023-01-13T09:28:45.917Z,8.40
2023-01-13T09:31:14.465Z,8.40
2023-01-13T09:34:00.063Z,8.40
2023-01-13T09:36:27.065Z,8.40
2023-01-13T09:38:54.063Z,8.40
2023-01-13T09:41:46.603Z,8.40
2023-01-13T09:44:39.480Z,8.40
2023-01-13T09:47:18.152Z,8.50
2023-01-13T09:49:45.466Z,8.40
2023-01-13T09:52:27.514Z,8.30
2023-01-13T09:54:58.177Z,8.30
2023-01-13T09:57:27.949Z,8.30
2023-01-13T09:59:54.874Z,8.20
2023-01-13T10:03:07.067Z,8.20
2023-01-13T10:05:39.534Z,8.10
2023-01-13T10:08:18.432Z,8.10
2023-01-13T10:11:00.392Z,8.10
2023-01-13T10:13:29.426Z,8.10
2023-01-13T10:15:56.642Z,8.10
2023-01-13T10:18:28.607Z,8.10
2023-01-13T10:21:33.785Z,8.10
2023-01-13T10:24:07.512Z,8.10
2023-01-13T10:27:05.237Z,8.10
2023-01-13T10:29:33.337Z,8.10
2023-01-13T10:32:03.382Z,8.10
2023-01-13T10:34:32.342Z,8.20
2023-01-13T10:37:05.189Z,8.30
2023-01-13T10:39:46.597Z,8.30
2023-01-13T10:42:18.755Z,8.30
2023-01-13T10:44:57.157Z,8.40
2023-01-13T10:47:29.354Z,8.40
2023-01-13T10:50:11.669Z,8.50
2023-01-13T10:53:00.401Z,8.50
2023-01-13T10:55:33.648Z,8.50
2023-01-13T10:58:13.455Z,8.50
2023-01-13T11:00:40.904Z,8.50
2023-01-13T11:03:23.661Z,8.50
2023-01-13T11:05:59.690Z,8.50
2023-01-13T11:08:41.537Z,8.40
2023-01-13T11:11:25.554Z,8.40
2023-01-13T11:14:14.986Z,8.30
2023-01-13T11:16:52.947Z,8.20
2023-01-13T11:19:23.022Z,8.20
2023-01-13T11:22:25.607Z,8.10
2023-01-13T11:24:58.938Z,8.00
2023-01-13T11:27:53.179Z,8.00
2023-01-13T11:31:07.347Z,8.10
2023-01-13T11:33:46.972Z,8.10
2023-01-13T11:36:28.100Z,8.10
2023-01-13T11:38:57.597Z,8.10
2023-01-13T11:42:14.202Z,8.10
2023-01-13T11:45:04.467Z,8.10
2023-01-13T11:47:32.634Z,8.10
2023-01-13T11:50:01.343Z,8.10
2023-01-13T11:52:49.439Z,8.20
2023-01-13T11:55:33.093Z,8.10
2023-01-13T11:58:13.235Z,8.10
2023-01-13T12:00:58.744Z,8.10
2023-01-13T12:03:53.125Z,8.10
2023-01-13T12:06:34.879Z,8.10
2023-01-13T12:09:22.906Z,8.10
2023-01-13T12:12:20.290Z,8.10
2023-01-13T12:15:18.090Z,8.10
2023-01-13T12:18:03.739Z,8.00
2023-01-13T12:20:36.837Z,8.00
2023-01-13T12:23:11.566Z,8.00
2023-01-13T12:25:52.794Z,8.00
2023-01-13T12:28:39.687Z,8.00
2023-01-13T12:31:09.522Z,8.00
2023-01-13T12:33:55.735Z,8.00
2023-01-13T12:36:28.477Z,8.00
2023-01-13T12:39:00.069Z,8.10
2023-01-13T12:42:31.323Z,8.00
2023-01-13T12:45:10.003Z,8.10
2023-01-13T12:47:38.957Z,8.00
2023-01-13T12:50:27.373Z,8.10
2023-01-13T12:52:59.500Z,8.10
2023-01-13T12:55:28.158Z,8.10
2023-01-13T12:58:16.665Z,8.10
2023-01-13T13:00:44.847Z,8.10
2023-01-13T13:03:12.301Z,8.10
2023-01-13T13:06:07.603Z,8.10
2023-01-13T13:08:50.460Z,8.10
2023-01-13T13:12:00.523Z,8.10
2023-01-13T13:14:42.526Z,8.20
2023-01-13T13:17:27.291Z,8.20
2023-01-13T13:19:55.774Z,8.10
2023-01-13T13:22:42.270Z,8.20
2023-01-13T13:25:24.236Z,8.20
2023-01-13T13:28:05.591Z,8.20
2023-01-13T13:30:39.440Z,8.20
2023-01-13T13:33:34.822Z,8.20
2023-01-13T13:36:25.243Z,8.20
2023-01-13T13:39:28.270Z,8.20
2023-01-13T13:42:28.518Z,8.20
2023-01-13T13:45:16.226Z,8.20
2023-01-13T13:47:43.161Z,8.20
2023-01-13T13:50:20.663Z,8.20
2023-01-13T13:53:05.873Z,8.20
2023-01-13T13:55:36.823Z,8.20
2023-01-13T13:58:14.060Z,8.20
2023-01-13T14:00:40.971Z,8.20
2023-01-13T14:03:19.519Z,8.10
2023-01-13T14:06:23.651Z,8.10
2023-01-13T14:08:50.849Z,8.20
2023-01-13T14:11:33.979Z,8.20
2023-01-13T14:14:06.078Z,8.10
2023-01-13T14:16:38.424Z,8.20
2023-01-13T14:19:05.376Z,8.20
2023-01-13T14:21:32.762Z,8.10
2023-01-13T14:24:14.128Z,8.10
2023-01-13T14:26:42.105Z,8.10
2023-01-13T14:29:15.807Z,8.10
2023-01-13T14:31:44.253Z,8.00
2023-01-13T14:34:31.383Z,8.20
2023-01-13T14:37:00.743Z,8.20
2023-01-13T14:39:38.897Z,8.20
2023-01-13T14:42:12.649Z,8.20
2023-01-13T14:44:45.560Z,8.20
2023-01-13T14:47:29.091Z,8.20
2023-01-13T14:50:11.487Z,8.20
2023-01-13T14:52:49.243Z,8.10
2023-01-13T14:55:42.760Z,8.10
2023-01-13T14:58:28.736Z,8.10
2023-01-13T15:01:28.831Z,8.10
2023-01-13T15:04:16.399Z,8.10
2023-01-13T15:06:47.535Z,8.10
2023-01-13T15:09:14.483Z,8.10
2023-01-13T15:11:41.513Z,8.00
2023-01-13T15:14:11.484Z,8.00
2023-01-13T15:16:38.570Z,8.00
2023-01-13T15:19:05.563Z,8.00
2023-01-13T15:21:32.553Z,8.00
2023-01-13T15:23:59.970Z,8.00
2023-01-13T15:26:29.356Z,8.00
2023-01-13T15:29:03.392Z,8.00
2023-01-13T15:31:30.347Z,8.00
2023-01-13T15:33:58.901Z,7.90
2023-01-13T15:36:31.157Z,7.90
2023-01-13T15:38:59.653Z,8.00
2023-01-13T15:41:45.459Z,7.80
2023-01-13T15:44:32.362Z,7.90
2023-01-13T15:47:02.322Z,7.80
2023-01-13T15:49:37.015Z,7.90
2023-01-13T15:52:24.013Z,7.80
2023-01-13T15:54:51.792Z,7.70
2023-01-13T15:57:32.635Z,7.70
2023-01-13T16:00:02.812Z,7.70
2023-01-13T16:02:31.033Z,7.70
2023-01-13T16:04:57.965Z,7.80
2023-01-13T16:07:25.776Z,7.70
2023-01-13T16:09:53.048Z,7.70
2023-01-13T16:12:20.076Z,7.70
2023-01-13T16:14:46.980Z,7.80
2023-01-13T16:17:22.863Z,7.80
2023-01-13T16:19:50.429Z,7.80
2023-01-13T16:22:17.766Z,7.80
2023-01-13T16:24:44.687Z,7.70
2023-01-13T16:27:17.503Z,7.70
2023-01-13T16:29:45.389Z,7.60
2023-01-13T16:32:12.603Z,7.70
2023-01-13T16:34:39.734Z,7.70
2023-01-13T16:37:23.034Z,7.60
2023-01-13T16:39:50.641Z,7.60
2023-01-13T16:42:20.013Z,7.60
2023-01-13T16:44:48.390Z,7.60
2023-01-13T16:47:16.779Z,7.60
2023-01-13T16:49:44.662Z,7.60
2023-01-13T16:52:11.893Z,7.60
2023-01-13T16:54:38.812Z,7.60
2023-01-13T16:57:07.578Z,7.70
2023-01-13T16:59:34.599Z,7.70
2023-01-13T17:02:02.180Z,7.70
2023-01-13T17:04:29.298Z,7.80
2023-01-13T17:07:08.125Z,7.80
2023-01-13T17:09:34.989Z,7.80
2023-01-13T17:12:01.935Z,7.70
2023-01-13T17:14:28.845Z,7.80
2023-01-13T17:16:58.136Z,7.80
2023-01-13T17:19:25.662Z,7.80
2023-01-13T17:21:52.772Z,7.80
2023-01-13T17:24:19.934Z,7.80
2023-01-13T17:26:49.461Z,8.00
2023-01-13T17:29:19.285Z,7.80
2023-01-13T17:31:46.239Z,7.80
2023-01-13T17:34:13.850Z,7.90
2023-01-13T17:36:43.332Z,7.90
2023-01-13T17:39:25.992Z,7.90
2023-01-13T17:41:55.793Z,7.80
2023-01-13T17:44:23.603Z,7.90
2023-01-13T17:46:51.083Z,7.90
2023-01-13T17:49:21.266Z,7.90
2023-01-13T17:51:50.991Z,7.90
2023-01-13T17:54:18.389Z,7.90
2023-01-13T17:56:45.347Z,8.00
2023-01-13T17:59:13.876Z,8.00
2023-01-13T18:01:41.199Z,8.00
2023-01-13T18:04:13.754Z,8.00
2023-01-13T18:06:40.618Z,8.00
2023-01-13T18:09:07.478Z,8.10
2023-01-13T18:11:34.397Z,8.20
2023-01-13T18:14:01.399Z,8.20
2023-01-13T18:16:30.325Z,8.20
2023-01-13T18:19:18.816Z,8.20
2023-01-13T18:22:05.773Z,8.20
2023-01-13T18:24:51.511Z,8.20
2023-01-13T18:27:23.240Z,8.20
2023-01-13T18:29:54.073Z,8.20
2023-01-13T18:32:23.410Z,8.20
2023-01-13T18:34:53.992Z,8.30
2023-01-13T18:37:29.024Z,8.30
2023-01-13T18:39:55.914Z,8.30
2023-01-13T18:42:41.306Z,8.30
2023-01-13T18:45:10.474Z,8.30
2023-01-13T18:47:39.174Z,8.30
2023-01-13T18:50:06.626Z,8.40
2023-01-13T18:52:33.689Z,8.40
2023-01-13T18:55:00.539Z,8.30
2023-01-13T18:57:27.518Z,8.30
2023-01-13T18:59:56.895Z,8.30
2023-01-13T19:02:26.390Z,8.30
2023-01-13T19:04:54.168Z,8.30
2023-01-13T19:07:27.179Z,8.30
2023-01-13T19:09:59.357Z,8.30
2023-01-13T19:12:28.229Z,8.30
2023-01-13T19:14:55.705Z,8.30
2023-01-13T19:17:24.540Z,8.20
2023-01-13T19:19:54.176Z,8.20
2023-01-13T19:22:32.936Z,8.30
2023-01-13T19:25:01.639Z,8.20
2023-01-13T19:27:29.533Z,8.20
2023-01-13T19:30:01.732Z,8.10
2023-01-13T19:32:30.911Z,8.00
2023-01-13T19:34:59.618Z,8.00
2023-01-13T19:37:31.426Z,7.90
2023-01-13T19:39:59.373Z,7.90
2023-01-13T19:42:45.306Z,7.90
2023-01-13T19:45:29.190Z,7.90
2023-01-13T19:47:57.244Z,7.80
2023-01-13T19:50:24.788Z,7.90
2023-01-13T19:52:51.759Z,7.80
2023-01-13T19:55:19.863Z,7.80
2023-01-13T19:57:46.749Z,7.80
2023-01-13T20:00:18.317Z,8.00
2023-01-13T20:02:49.118Z,7.80
2023-01-13T20:05:25.864Z,7.90
2023-01-13T20:07:53.908Z,7.90
2023-01-13T20:10:24.204Z,7.90
2023-01-13T20:12:51.448Z,7.90
2023-01-13T20:15:18.432Z,7.90
2023-01-13T20:17:45.432Z,7.90
2023-01-13T20:20:14.966Z,7.90
2023-01-13T20:22:42.354Z,7.90
2023-01-13T20:25:09.729Z,8.00
2023-01-13T20:27:36.957Z,7.90
2023-01-13T20:30:05.611Z,7.90
2023-01-13T20:32:33.005Z,7.90
2023-01-13T20:34:59.967Z,7.90
2023-01-13T20:37:27.462Z,8.00
2023-01-13T20:39:55.281Z,8.00
2023-01-13T20:42:32.159Z,7.90
2023-01-13T20:45:01.070Z,8.00
2023-01-13T20:47:29.005Z,7.90
2023-01-13T20:49:56.081Z,7.90
2023-01-13T20:52:23.553Z,7.90
2023-01-13T20:54:50.657Z,7.90
2023-01-13T20:57:19.101Z,7.90
2023-01-13T20:59:46.002Z,7.90
2023-01-13T21:02:15.289Z,7.90
2023-01-13T21:04:42.541Z,7.90
2023-01-13T21:07:10.149Z,8.00
2023-01-13T21:09:37.165Z,8.00
2023-01-13T21:12:22.772Z,8.10
2023-01-13T21:15:08.375Z,7.90
2023-01-13T21:17:54.011Z,8.00
2023-01-13T21:20:24.064Z,7.90
2023-01-13T21:22:51.183Z,7.90
2023-01-13T21:25:19.272Z,7.90
2023-01-13T21:27:46.581Z,7.90
2023-01-13T21:30:15.374Z,7.90
2023-01-13T21:32:43.548Z,7.80
2023-01-13T21:35:11.661Z,7.90
2023-01-13T21:37:39.792Z,7.80
2023-01-13T21:40:10.232Z,7.80
2023-01-13T21:42:55.619Z,7.80
2023-01-13T21:45:41.458Z,7.80
2023-01-13T21:48:08.377Z,7.80
2023-01-13T21:50:37.897Z,7.80
2023-01-13T21:53:05.366Z,7.90
2023-01-13T21:55:32.879Z,7.90
2023-01-13T21:58:14.615Z,7.90
2023-01-13T22:00:43.948Z,7.90
2023-01-13T22:03:12.609Z,7.90
2023-01-13T22:05:39.911Z,8.00
2023-01-13T22:08:07.233Z,7.90
2023-01-13T22:10:34.693Z,8.00
2023-01-13T22:13:22.762Z,7.90
2023-01-13T22:15:49.735Z,8.00
2023-01-13T22:18:20.393Z,8.00
2023-01-13T22:20:48.773Z,8.00
2023-01-13T22:23:15.718Z,8.00
2023-01-13T22:25:44.653Z,8.00
2023-01-13T22:28:13.880Z,7.90
2023-01-13T22:30:41.278Z,7.90
2023-01-13T22:33:08.336Z,7.90
2023-01-13T22:35:35.199Z,7.90
2023-01-13T22:38:02.054Z,7.90
2023-01-13T22:40:28.965Z,7.70
2023-01-13T22:42:55.767Z,7.80
2023-01-13T22:45:22.744Z,7.80
2023-01-13T22:47:50.059Z,7.80
2023-01-13T22:50:20.692Z,7.90
2023-01-13T22:52:47.830Z,7.80
2023-01-13T22:55:14.727Z,7.80
2023-01-13T22:57:47.845Z,7.80
2023-01-13T23:00:19.115Z,7.70
2023-01-13T23:02:46.703Z,7.80
2023-01-13T23:05:14.037Z,7.80
2023-01-13T23:07:41.179Z,7.80
2023-01-13T23:10:08.781Z,7.90
2023-01-13T23:12:35.775Z,7.80
2023-01-13T23:15:03.435Z,7.80
2023-01-13T23:17:31.237Z,7.80
2023-01-13T23:19:58.273Z,7.80
2023-01-13T23:22:25.317Z,7.80
2023-01-13T23:24:52.157Z,7.80
2023-01-13T23:27:19.139Z,7.70
2023-01-13T23:29:45.940Z,7.70
2023-01-13T23:32:12.827Z,7.60
2023-01-13T23:34:39.765Z,7.60
2023-01-13T23:37:06.821Z,7.60
2023-01-13T23:39:33.684Z,7.60
2023-01-13T23:42:00.947Z,7.50
2023-01-13T23:44:27.839Z,7.60
2023-01-13T23:46:54.903Z,7.60
2023-01-13T23:49:21.960Z,7.60
2023-01-13T23:51:52.194Z,7.70
2023-01-13T23:54:19.368Z,7.40
2023-01-13T23:56:46.539Z,7.60
2023-01-13T23:59:13.467Z,7.50
